Aérodrome :
LOGIN :

S'inscrire | Disclaimer

   EN    FR    IT 

 










Légende :    VFR   VFR Marginal   IFR   IFR Intensif   IFR Très Intensif
Visi : 
Plafond : 
>= 8 km
>= 3000ft
5 à 8 km
1000 à 3000 ft
1500m à 5 km
500 à 1000 ft
800 à 1500m
200 à 500 ft
< 800m
< 200 ft
Symboles :   Orages  Brouillard  Fortes neiges  Fortes précipitations  Vent > 20 kt
SIGMETs :   Divers  Orages  Givrage  Turbulence  Onde Orograph.  Cendres Volcan.






- Altitude de l'aérodrome : 141 ft
- Code IATA : SKS


EKSP - Srydstrup Vojens

DERNIER METAR :
  • 220150Z 21009KT 5000 BR BKN008 BKN050 12/11 Q1018

METARs EXPIRÉS :
  • 220120Z 20007KT 5000 BR BKN006 BKN050 12/12 Q1018
  • 220050Z 20007KT 4500 BR BKN007 12/12 Q1018
  • 220020Z 20007KT 5000 BR BKN007 BKN046 12/12 Q1018
  • 212350Z 21004KT 180V270 3500 BR SCT004 BKN050 11/11 Q1018
  • 212320Z 20006KT 3500 BR SCT004 BKN042 11/11 Q1018
  • 212250Z 18005KT 3500 BR BKN004 BKN006 11/11 Q1018

TAF TAF EKSP
Valide du 22 à 00h jusqu'au 23 à 00h UTC


212302Z 2200/2224 VRB03KT 5000 BR SCT003 BKN015
TEMPO 2200/2209 1200 RADZ BR BKN003
BECMG 2209/2211 25008KT 9999 NSW



MET'MAP, la Météo Aéronautique d'un coup d'oeil ! - Copyright ORBIFLY Décembre 2007 - Disclaimer

ORBIFLY MET'MAP TEAM :

Programmation & Développement : Alexandra Zaïnal
Conception & Développement : Baudouin d'Aumeries
Co-Programmation & Développement : Marc-Olivier Méhu
Soutien technique & logistique : Manuel Goepfert

Contact : metmap@orbifly.com




SOURCES & CREDITS :

   NOAA